createdAt,value
2022-11-05T00:02:25.840Z,25.20
2022-11-05T00:05:11.701Z,29.70
2022-11-05T00:07:59.672Z,30.27
2022-11-05T00:10:28.887Z,26.93
2022-11-05T00:13:17.390Z,28.43
2022-11-05T00:16:03.188Z,24.77
2022-11-05T00:18:31.523Z,26.97
2022-11-05T00:20:59.677Z,23.17
2022-11-05T00:23:45.352Z,23.20
2022-11-05T00:26:14.063Z,20.43
2022-11-05T00:28:44.644Z,17.67
2022-11-05T00:31:13.545Z,15.07
2022-11-05T00:33:42.490Z,16.10
2022-11-05T00:36:11.697Z,16.50
2022-11-05T00:38:39.867Z,17.67
2022-11-05T00:41:08.017Z,15.67
2022-11-05T00:43:53.957Z,14.93
2022-11-05T00:46:23.490Z,14.90
2022-11-05T00:49:20.891Z,13.47
2022-11-05T00:52:09.019Z,16.23
2022-11-05T00:54:37.151Z,14.57
2022-11-05T00:57:05.412Z,12.27
2022-11-05T00:59:33.558Z,15.50
2022-11-05T01:02:03.172Z,14.10
2022-11-05T01:04:31.458Z,14.17
2022-11-05T01:06:59.591Z,10.80
2022-11-05T01:09:27.750Z,12.63
2022-11-05T01:11:55.897Z,13.10
2022-11-05T01:14:24.159Z,11.13
2022-11-05T01:16:52.307Z,11.17
2022-11-05T01:19:21.818Z,12.43
2022-11-05T01:21:49.966Z,12.53
2022-11-05T01:24:18.122Z,15.90
2022-11-05T01:26:46.273Z,16.33
2022-11-05T01:29:14.473Z,19.33
2022-11-05T01:31:42.937Z,19.50
2022-11-05T01:34:11.077Z,21.43
2022-11-05T01:36:40.595Z,20.57
2022-11-05T01:39:08.748Z,21.43
2022-11-05T01:41:36.917Z,20.63
2022-11-05T01:44:05.059Z,25.03
2022-11-05T01:46:35.497Z,21.80
2022-11-05T01:49:07.010Z,23.80
2022-11-05T01:51:35.170Z,24.37
2022-11-05T01:54:07.142Z,24.17
2022-11-05T01:56:37.409Z,30.43
2022-11-05T01:59:07.597Z,24.93
2022-11-05T02:01:35.872Z,20.70
2022-11-05T02:04:05.213Z,27.30
2022-11-05T02:06:34.369Z,19.90
2022-11-05T02:09:04.567Z,22.87
2022-11-05T02:11:34.437Z,23.30
2022-11-05T02:14:02.580Z,25.17
2022-11-05T02:16:37.299Z,25.07
2022-11-05T02:19:14.473Z,25.00
2022-11-05T02:21:51.519Z,22.43
2022-11-05T02:24:43.371Z,28.40
2022-11-05T02:27:23.313Z,31.37
2022-11-05T02:30:04.253Z,30.23
2022-11-05T02:32:37.306Z,29.13
2022-11-05T02:35:08.756Z,32.63
2022-11-05T02:37:40.265Z,33.50
2022-11-05T02:40:12.535Z,33.47
2022-11-05T02:42:45.345Z,38.57
2022-11-05T02:45:19.174Z,31.57
2022-11-05T02:47:49.441Z,37.20
2022-11-05T02:50:21.598Z,33.43
2022-11-05T02:52:53.159Z,39.40
2022-11-05T02:55:24.671Z,35.97
2022-11-05T02:57:52.822Z,34.97
2022-11-05T03:00:44.906Z,30.50
2022-11-05T03:03:16.732Z,34.30
2022-11-05T03:05:47.425Z,34.03
2022-11-05T03:08:18.146Z,38.03
2022-11-05T03:10:53.501Z,37.00
2022-11-05T03:13:24.118Z,39.47
2022-11-05T03:15:58.194Z,36.50
2022-11-05T03:18:32.452Z,35.30
2022-11-05T03:21:02.753Z,37.63
2022-11-05T03:23:35.433Z,38.20
2022-11-05T03:26:06.585Z,36.07
2022-11-05T03:28:37.033Z,38.20
2022-11-05T03:31:06.074Z,38.83
2022-11-05T03:33:37.167Z,38.17
2022-11-05T03:36:08.408Z,37.97
2022-11-05T03:38:38.289Z,40.27
2022-11-05T03:41:08.272Z,41.43
2022-11-05T03:43:38.565Z,40.50
2022-11-05T03:46:09.394Z,43.27
2022-11-05T03:48:41.166Z,43.67
2022-11-05T03:51:13.261Z,41.57
2022-11-05T03:53:44.486Z,38.47
2022-11-05T03:56:14.790Z,44.17
2022-11-05T03:58:44.684Z,36.50
2022-11-05T04:01:13.457Z,49.40
2022-11-05T04:03:42.969Z,39.23
2022-11-05T04:06:29.561Z,41.67
2022-11-05T04:09:15.561Z,44.10
2022-11-05T04:12:01.685Z,40.50
2022-11-05T04:14:29.895Z,42.27
2022-11-05T04:17:06.253Z,41.57
2022-11-05T04:19:53.611Z,38.77
2022-11-05T04:22:39.357Z,43.37
2022-11-05T04:25:07.635Z,43.87
2022-11-05T04:27:35.866Z,48.50
2022-11-05T04:30:21.850Z,42.23
2022-11-05T04:33:00.242Z,44.57
2022-11-05T04:35:30.615Z,47.57
2022-11-05T04:37:58.816Z,42.00
2022-11-05T04:40:27.008Z,41.30
2022-11-05T04:42:55.544Z,42.47
2022-11-05T04:45:24.306Z,39.40
2022-11-05T04:47:52.480Z,38.60
2022-11-05T04:50:20.706Z,37.87
2022-11-05T04:52:50.235Z,34.87
2022-11-05T04:55:18.481Z,32.03
2022-11-05T04:57:49.305Z,37.43
2022-11-05T05:00:17.805Z,34.37
2022-11-05T05:02:46.419Z,40.20
2022-11-05T05:05:14.678Z,34.70
2022-11-05T05:07:43.202Z,39.13
2022-11-05T05:10:12.924Z,38.23
2022-11-05T05:12:41.161Z,35.27
2022-11-05T05:15:09.614Z,35.07
2022-11-05T05:17:37.765Z,30.07
2022-11-05T05:20:23.859Z,32.73
2022-11-05T05:22:54.859Z,36.47
2022-11-05T05:25:24.451Z,33.67
2022-11-05T05:27:52.610Z,30.47
2022-11-05T05:30:20.774Z,29.43
2022-11-05T05:32:48.913Z,37.70
2022-11-05T05:35:17.168Z,28.70
2022-11-05T05:37:45.458Z,26.27
2022-11-05T05:40:13.610Z,25.60
2022-11-05T05:42:43.668Z,29.23
2022-11-05T05:45:12.797Z,30.00
2022-11-05T05:47:40.976Z,30.07
2022-11-05T05:50:09.314Z,29.40
2022-11-05T05:52:37.485Z,30.43
2022-11-05T05:55:05.894Z,26.00
2022-11-05T05:57:34.080Z,27.03
2022-11-05T06:00:03.592Z,27.83
2022-11-05T06:02:31.978Z,30.53
2022-11-05T06:05:00.181Z,27.33
2022-11-05T06:07:30.727Z,28.37
2022-11-05T06:10:02.677Z,28.63
2022-11-05T06:12:31.234Z,25.67
2022-11-05T06:14:59.382Z,30.67
2022-11-05T06:17:28.903Z,28.00
2022-11-05T06:19:57.042Z,27.03
2022-11-05T06:22:25.194Z,24.90
2022-11-05T06:24:53.370Z,24.67
2022-11-05T06:27:21.578Z,26.53
2022-11-05T06:29:49.739Z,32.73
2022-11-05T06:32:17.887Z,30.67
2022-11-05T06:34:47.373Z,30.67
2022-11-05T06:37:15.495Z,27.23
2022-11-05T06:39:43.671Z,29.53
2022-11-05T06:42:18.294Z,27.30
2022-11-05T06:44:47.614Z,30.90
2022-11-05T06:47:15.800Z,25.47
2022-11-05T06:49:44.056Z,31.17
2022-11-05T06:52:13.762Z,31.43
2022-11-05T06:54:42.287Z,32.57
2022-11-05T06:57:10.570Z,32.23
2022-11-05T06:59:40.987Z,29.97
2022-11-05T07:02:11.716Z,29.60
2022-11-05T07:04:39.932Z,31.70
2022-11-05T07:07:09.863Z,34.90
2022-11-05T07:09:43.003Z,31.37
2022-11-05T07:12:11.419Z,33.07
2022-11-05T07:14:39.549Z,33.10
2022-11-05T07:17:07.720Z,36.60
2022-11-05T07:19:36.161Z,34.10
2022-11-05T07:22:04.317Z,33.67
2022-11-05T07:24:32.466Z,28.93
2022-11-05T07:27:01.971Z,28.87
2022-11-05T07:29:30.162Z,30.83
2022-11-05T07:31:58.536Z,27.80
2022-11-05T07:34:26.673Z,27.33
2022-11-05T07:36:54.876Z,29.80
2022-11-05T07:39:23.631Z,22.97
2022-11-05T07:41:54.757Z,23.33
2022-11-05T07:44:26.230Z,23.13
2022-11-05T07:46:54.414Z,24.73
2022-11-05T07:49:23.939Z,22.47
2022-11-05T07:51:52.122Z,26.07
2022-11-05T07:54:20.338Z,22.13
2022-11-05T07:56:48.560Z,19.13
2022-11-05T07:59:16.710Z,22.13
2022-11-05T08:01:46.453Z,19.90
2022-11-05T08:04:14.762Z,21.07
2022-11-05T08:06:42.926Z,18.50
2022-11-05T08:09:11.194Z,18.47
2022-11-05T08:11:39.939Z,19.37
2022-11-05T08:14:08.188Z,21.10
2022-11-05T08:16:36.329Z,23.37
2022-11-05T08:19:05.844Z,19.07
2022-11-05T08:21:34.010Z,19.37
2022-11-05T08:24:02.144Z,18.00
2022-11-05T08:26:30.324Z,18.93
2022-11-05T08:29:00.184Z,20.30
2022-11-05T08:31:28.608Z,19.53
2022-11-05T08:34:02.214Z,18.50
2022-11-05T08:36:32.089Z,18.40
2022-11-05T08:39:00.384Z,18.70
2022-11-05T08:41:28.551Z,20.70
2022-11-05T08:43:57.084Z,17.73
2022-11-05T08:46:25.287Z,19.57
2022-11-05T08:48:53.479Z,16.90
2022-11-05T08:51:21.633Z,18.23
2022-11-05T08:53:51.162Z,19.47
2022-11-05T08:56:19.473Z,13.30
2022-11-05T08:58:47.630Z,16.03
2022-11-05T09:01:15.866Z,15.53
2022-11-05T09:03:44.061Z,16.70
2022-11-05T09:06:12.230Z,15.63
2022-11-05T09:08:40.395Z,14.77
2022-11-05T09:11:09.917Z,14.73
2022-11-05T09:13:38.062Z,14.73
2022-11-05T09:16:06.583Z,12.37
2022-11-05T09:18:35.149Z,14.57
2022-11-05T09:21:03.291Z,12.63
2022-11-05T09:23:31.459Z,14.90
2022-11-05T09:25:59.626Z,12.20
2022-11-05T09:28:30.185Z,10.57
2022-11-05T09:30:58.404Z,12.13
2022-11-05T09:33:27.294Z,12.37
2022-11-05T09:35:55.763Z,14.33
2022-11-05T09:38:23.902Z,12.80
2022-11-05T09:40:56.030Z,13.77
2022-11-05T09:43:31.263Z,11.93
2022-11-05T09:46:04.986Z,10.90
2022-11-05T09:48:33.738Z,13.03
2022-11-05T09:51:01.915Z,15.63
2022-11-05T09:53:30.078Z,13.67
2022-11-05T09:55:59.189Z,11.37
2022-11-05T09:58:29.672Z,11.90
2022-11-05T10:00:58.924Z,10.77
2022-11-05T10:03:29.940Z,12.83
2022-11-05T10:06:02.002Z,12.20
2022-11-05T10:08:32.402Z,15.07
2022-11-05T10:11:05.025Z,13.73
2022-11-05T10:13:37.405Z,14.07
2022-11-05T10:16:06.585Z,10.60
2022-11-05T10:18:37.458Z,9.97
2022-11-05T10:21:06.122Z,13.67
2022-11-05T10:23:34.726Z,10.93
2022-11-05T10:26:04.674Z,12.10
2022-11-05T10:28:35.144Z,11.53
2022-11-05T10:31:04.571Z,13.57
2022-11-05T10:33:35.210Z,13.87
2022-11-05T10:36:06.368Z,14.07
2022-11-05T10:38:34.856Z,10.27
2022-11-05T10:41:11.511Z,13.77
2022-11-05T10:43:41.864Z,8.97
2022-11-05T10:46:21.719Z,10.20
2022-11-05T10:48:54.758Z,13.47
2022-11-05T10:51:24.409Z,12.60
2022-11-05T10:54:00.311Z,10.40
2022-11-05T10:56:30.723Z,12.23
2022-11-05T10:59:00.494Z,9.40
2022-11-05T11:01:29.134Z,10.97
2022-11-05T11:04:07.045Z,9.90
2022-11-05T11:06:39.087Z,9.73
2022-11-05T11:09:08.241Z,9.60
2022-11-05T11:11:38.021Z,9.70
2022-11-05T11:14:07.955Z,9.90
2022-11-05T11:16:37.813Z,12.40
2022-11-05T11:19:08.710Z,10.60
2022-11-05T11:21:39.035Z,11.57
2022-11-05T11:24:07.640Z,8.60
2022-11-05T11:26:37.802Z,9.83
2022-11-05T11:29:08.774Z,6.00
2022-11-05T11:31:39.801Z,9.80
2022-11-05T11:34:12.757Z,8.53
2022-11-05T11:36:45.593Z,9.40
2022-11-05T11:39:16.914Z,8.13
2022-11-05T11:41:45.736Z,6.90
2022-11-05T11:44:16.718Z,6.33
2022-11-05T11:46:47.685Z,6.00
2022-11-05T11:49:30.740Z,6.60
2022-11-05T11:52:03.304Z,5.90
2022-11-05T11:54:32.017Z,8.50
2022-11-05T11:57:00.199Z,7.80
2022-11-05T12:00:06.436Z,5.93
2022-11-05T12:02:35.920Z,6.47
2022-11-05T12:05:09.169Z,6.57
2022-11-05T12:07:44.394Z,4.50
2022-11-05T12:10:23.481Z,5.13
2022-11-05T12:12:58.257Z,8.00
2022-11-05T12:15:32.767Z,4.30
2022-11-05T12:18:02.645Z,5.60
2022-11-05T12:20:37.969Z,3.60
2022-11-05T12:23:15.086Z,6.67
2022-11-05T12:25:46.957Z,4.97
2022-11-05T12:28:30.799Z,9.40
2022-11-05T12:31:04.642Z,5.37
2022-11-05T12:33:39.815Z,5.90
2022-11-05T12:36:11.290Z,6.57
2022-11-05T12:39:02.568Z,3.17
2022-11-05T12:41:34.065Z,2.43
2022-11-05T12:44:08.857Z,4.10
2022-11-05T12:46:38.851Z,5.43
2022-11-05T12:49:15.485Z,4.70
2022-11-05T12:51:51.491Z,2.90
2022-11-05T12:54:25.701Z,3.03
2022-11-05T12:56:55.357Z,2.57
2022-11-05T12:59:26.240Z,5.00
2022-11-05T13:01:56.713Z,3.87
2022-11-05T13:04:30.719Z,4.60
2022-11-05T13:06:59.351Z,8.33
2022-11-05T13:09:30.764Z,2.80
2022-11-05T13:12:00.455Z,4.17
2022-11-05T13:14:29.874Z,2.53
2022-11-05T13:17:00.733Z,4.30
2022-11-05T13:19:29.963Z,2.20
2022-11-05T13:21:59.415Z,2.73
2022-11-05T13:24:32.736Z,4.63
2022-11-05T13:27:02.224Z,2.43
2022-11-05T13:29:34.486Z,2.97
2022-11-05T13:32:04.643Z,5.07
2022-11-05T13:34:37.373Z,4.60
2022-11-05T13:37:24.765Z,2.97
2022-11-05T13:39:55.819Z,3.53
2022-11-05T13:42:41.650Z,3.47
2022-11-05T13:45:27.825Z,3.17
2022-11-05T13:48:03.423Z,3.27
2022-11-05T13:50:46.023Z,2.57
2022-11-05T13:53:33.432Z,1.97
2022-11-05T13:56:07.260Z,2.73
2022-11-05T13:58:50.560Z,2.80
2022-11-05T14:01:24.929Z,11.00
2022-11-05T14:03:54.059Z,6.23
2022-11-05T14:06:24.959Z,5.00
2022-11-05T14:08:53.481Z,3.73
2022-11-05T14:11:24.184Z,2.17
2022-11-05T14:13:54.066Z,2.40
2022-11-05T14:16:23.239Z,3.60
2022-11-05T14:18:55.725Z,1.73
2022-11-05T14:21:34.572Z,2.23
2022-11-05T14:24:20.414Z,6.13
2022-11-05T14:27:14.989Z,4.57
2022-11-05T14:29:45.087Z,2.83
2022-11-05T14:32:26.908Z,5.57
2022-11-05T14:35:05.335Z,3.50
2022-11-05T14:37:37.514Z,3.23
2022-11-05T14:40:30.667Z,4.37
2022-11-05T14:43:00.206Z,5.30
2022-11-05T14:45:31.325Z,3.07
2022-11-05T14:48:00.605Z,3.83
2022-11-05T14:50:33.746Z,2.33
2022-11-05T14:53:05.723Z,1.90
2022-11-05T14:55:35.574Z,3.60
2022-11-05T14:58:05.890Z,2.43
2022-11-05T15:00:49.203Z,5.60
2022-11-05T15:03:34.930Z,2.97
2022-11-05T15:06:07.283Z,3.50
2022-11-05T15:08:39.029Z,4.77
2022-11-05T15:11:11.018Z,4.37
2022-11-05T15:13:44.197Z,4.10
2022-11-05T15:16:17.943Z,4.07
2022-11-05T15:18:47.447Z,4.00
2022-11-05T15:21:16.826Z,3.27
2022-11-05T15:23:45.545Z,3.93
2022-11-05T15:26:16.071Z,3.70
2022-11-05T15:28:46.512Z,4.20
2022-11-05T15:31:32.485Z,5.77
2022-11-05T15:34:20.604Z,3.23
2022-11-05T15:36:49.922Z,3.63
2022-11-05T15:39:30.022Z,2.53
2022-11-05T15:41:58.772Z,3.57
2022-11-05T15:44:28.410Z,5.67
2022-11-05T15:47:17.540Z,3.20
2022-11-05T15:49:48.080Z,4.77
2022-11-05T15:52:17.075Z,5.13
2022-11-05T15:54:45.521Z,4.07
2022-11-05T15:57:23.363Z,3.77
2022-11-05T15:59:51.674Z,6.47
2022-11-05T16:02:24.489Z,4.50
2022-11-05T16:04:54.227Z,2.67
2022-11-05T16:07:22.777Z,3.37
2022-11-05T16:09:54.846Z,4.63
2022-11-05T16:12:29.061Z,2.70
2022-11-05T16:15:03.755Z,3.30
2022-11-05T16:17:33.823Z,7.63
2022-11-05T16:20:03.372Z,6.53
2022-11-05T16:22:45.942Z,3.77
2022-11-05T16:25:38.907Z,2.87
2022-11-05T16:28:08.215Z,5.20
2022-11-05T16:30:36.363Z,6.57
2022-11-05T16:33:05.602Z,4.80
2022-11-05T16:35:35.122Z,5.27
2022-11-05T16:38:03.790Z,6.97
2022-11-05T16:40:31.976Z,7.27
2022-11-05T16:43:09.629Z,6.37
2022-11-05T16:45:41.281Z,5.07
2022-11-05T16:48:11.162Z,6.53
2022-11-05T16:50:41.287Z,6.80
2022-11-05T16:53:09.498Z,4.87
2022-11-05T16:55:38.534Z,7.50
2022-11-05T16:58:07.068Z,7.17
2022-11-05T17:00:35.236Z,6.40
2022-11-05T17:03:04.033Z,5.30
2022-11-05T17:05:32.807Z,7.63
2022-11-05T17:08:03.392Z,6.97
2022-11-05T17:10:31.685Z,9.67
2022-11-05T17:12:59.830Z,4.70
2022-11-05T17:15:29.155Z,6.93
2022-11-05T17:17:57.642Z,13.40
2022-11-05T17:20:33.738Z,8.57
2022-11-05T17:23:08.319Z,6.40
2022-11-05T17:25:36.518Z,4.97
2022-11-05T17:28:05.108Z,6.77
2022-11-05T17:30:33.360Z,6.87
2022-11-05T17:33:01.592Z,8.30
2022-11-05T17:35:29.855Z,7.47
2022-11-05T17:37:58.152Z,7.13
2022-11-05T17:40:28.769Z,11.03
2022-11-05T17:42:57.006Z,5.73
2022-11-05T17:45:25.121Z,9.47
2022-11-05T17:47:53.728Z,7.73
2022-11-05T17:50:21.916Z,7.80
2022-11-05T17:52:50.133Z,9.40
2022-11-05T17:55:18.345Z,8.13
2022-11-05T17:57:48.875Z,6.70
2022-11-05T18:00:17.962Z,12.30
2022-11-05T18:02:48.361Z,7.57
2022-11-05T18:05:16.930Z,10.43
2022-11-05T18:07:45.343Z,11.37
2022-11-05T18:10:13.558Z,8.63
2022-11-05T18:12:42.262Z,16.87
2022-11-05T18:15:12.389Z,11.23
2022-11-05T18:17:40.534Z,10.30
2022-11-05T18:20:14.208Z,8.60
2022-11-05T18:22:45.809Z,9.03
2022-11-05T18:25:14.596Z,7.33
2022-11-05T18:27:42.759Z,8.50
2022-11-05T18:30:15.312Z,8.97
2022-11-05T18:32:43.527Z,5.90
2022-11-05T18:35:11.789Z,7.80
2022-11-05T18:37:40.349Z,7.97
2022-11-05T18:40:09.383Z,6.17
2022-11-05T18:42:37.754Z,7.07
2022-11-05T18:45:06.584Z,4.60
2022-11-05T18:47:36.192Z,6.67
2022-11-05T18:50:04.792Z,5.53
2022-11-05T18:52:33.410Z,8.47
2022-11-05T18:55:01.577Z,4.43
2022-11-05T18:57:29.814Z,10.33
2022-11-05T18:59:57.957Z,5.90
2022-11-05T19:02:26.188Z,8.83
2022-11-05T19:05:26.825Z,5.70
2022-11-05T19:07:43.903Z,6.17
2022-11-05T19:10:12.107Z,4.37
2022-11-05T19:12:40.246Z,6.43
2022-11-05T19:15:09.005Z,4.50
2022-11-05T19:17:37.168Z,7.60
2022-11-05T19:20:07.810Z,7.50
2022-11-05T19:22:35.954Z,7.03
2022-11-05T19:25:04.328Z,6.47
2022-11-05T19:27:32.467Z,6.67
2022-11-05T19:30:00.599Z,7.33
2022-11-05T19:32:28.781Z,4.17
2022-11-05T19:34:56.950Z,5.73
2022-11-05T19:37:26.475Z,4.73
2022-11-05T19:39:54.598Z,4.63
2022-11-05T19:42:22.736Z,7.27
2022-11-05T19:44:50.895Z,6.27
2022-11-05T19:47:19.046Z,8.60
2022-11-05T19:49:47.177Z,8.77
2022-11-05T19:52:15.317Z,5.07
2022-11-05T19:54:45.951Z,4.27
2022-11-05T19:57:14.459Z,4.47
2022-11-05T19:59:42.601Z,9.93
2022-11-05T20:02:16.079Z,7.80
2022-11-05T20:04:45.116Z,5.30
2022-11-05T20:07:13.275Z,6.50
2022-11-05T20:09:41.530Z,8.57
2022-11-05T20:12:11.098Z,5.33
2022-11-05T20:14:39.231Z,7.33
2022-11-05T20:17:07.394Z,7.03
2022-11-05T20:19:35.583Z,10.37
2022-11-05T20:22:03.757Z,7.67
2022-11-05T20:24:31.914Z,5.23
2022-11-05T20:27:00.066Z,6.43
2022-11-05T20:29:35.362Z,6.60
2022-11-05T20:32:04.163Z,3.90
2022-11-05T20:34:32.901Z,8.20
2022-11-05T20:37:01.058Z,4.77
2022-11-05T20:39:29.254Z,5.60
2022-11-05T20:41:57.422Z,5.40
2022-11-05T20:44:25.594Z,6.80
2022-11-05T20:46:55.120Z,8.20
2022-11-05T20:49:25.529Z,6.80
2022-11-05T20:51:54.336Z,4.97
2022-11-05T20:54:22.523Z,5.77
2022-11-05T20:56:50.678Z,8.20
2022-11-05T20:59:19.376Z,4.90
2022-11-05T21:01:47.570Z,7.97
2022-11-05T21:04:17.126Z,5.27
2022-11-05T21:06:45.283Z,4.03
2022-11-05T21:09:13.628Z,4.53
2022-11-05T21:11:59.610Z,11.47
2022-11-05T21:14:27.772Z,5.57
2022-11-05T21:16:55.922Z,8.67
2022-11-05T21:19:25.454Z,7.10
2022-11-05T21:21:53.614Z,6.20
2022-11-05T21:24:21.759Z,5.70
2022-11-05T21:26:50.822Z,10.97
2022-11-05T21:29:19.361Z,7.77
2022-11-05T21:31:47.533Z,6.47
2022-11-05T21:34:15.959Z,8.10
2022-11-05T21:36:45.519Z,7.70
2022-11-05T21:39:14.003Z,6.47
2022-11-05T21:41:42.653Z,5.97
2022-11-05T21:44:11.123Z,9.93
2022-11-05T21:46:39.346Z,7.23
2022-11-05T21:49:07.527Z,6.33
2022-11-05T21:51:53.401Z,7.00
2022-11-05T21:54:40.394Z,8.17
2022-11-05T21:57:31.130Z,6.97
2022-11-05T22:00:00.446Z,6.53
2022-11-05T22:02:29.452Z,5.27
2022-11-05T22:04:59.816Z,9.70
2022-11-05T22:07:29.157Z,7.73
2022-11-05T22:09:58.654Z,3.90
2022-11-05T22:12:26.955Z,6.77
2022-11-05T22:14:55.193Z,6.87
2022-11-05T22:17:23.364Z,8.90
2022-11-05T22:19:51.558Z,7.13
2022-11-05T22:22:19.748Z,4.43
2022-11-05T22:24:47.969Z,5.93
2022-11-05T22:27:20.470Z,7.40
2022-11-05T22:29:48.585Z,5.97
2022-11-05T22:32:17.130Z,8.47
2022-11-05T22:34:45.283Z,8.73
2022-11-05T22:37:13.953Z,7.33
2022-11-05T22:39:42.183Z,5.17
2022-11-05T22:42:10.546Z,4.80
2022-11-05T22:44:40.138Z,5.07
2022-11-05T22:47:08.609Z,7.93
2022-11-05T22:49:36.894Z,6.83
2022-11-05T22:52:05.251Z,6.07
2022-11-05T22:54:38.799Z,4.47
2022-11-05T22:57:07.361Z,4.83
2022-11-05T22:59:35.495Z,8.17
2022-11-05T23:02:09.494Z,7.67
2022-11-05T23:04:38.088Z,6.60
2022-11-05T23:07:27.698Z,6.43
2022-11-05T23:10:13.770Z,8.30
2022-11-05T23:12:43.516Z,4.47
2022-11-05T23:15:32.407Z,5.27
2022-11-05T23:18:22.173Z,6.07
2022-11-05T23:21:08.053Z,3.40
2022-11-05T23:23:53.902Z,5.53
2022-11-05T23:26:39.997Z,6.37
2022-11-05T23:29:08.148Z,7.73
2022-11-05T23:31:53.906Z,4.20
2022-11-05T23:34:23.404Z,7.80
2022-11-05T23:37:09.083Z,10.17
2022-11-05T23:39:42.451Z,5.07
2022-11-05T23:42:28.803Z,7.60
2022-11-05T23:45:15.169Z,5.20
2022-11-05T23:48:01.054Z,7.90
2022-11-05T23:50:34.401Z,4.53
2022-11-05T23:53:06.668Z,4.77
2022-11-05T23:55:34.820Z,7.10
2022-11-05T23:58:02.982Z,5.20
